createdAt,value
2023-06-25T00:00:57.142Z,83.82
2023-06-25T00:01:59.161Z,83.41
2023-06-25T00:03:01.244Z,83.54
2023-06-25T00:04:03.564Z,84.21
2023-06-25T00:05:06.057Z,84.05
2023-06-25T00:06:08.068Z,83.77
2023-06-25T00:07:10.122Z,83.62
2023-06-25T00:08:12.181Z,84.50
2023-06-25T00:09:14.553Z,84.36
2023-06-25T00:10:16.559Z,84.07
2023-06-25T00:11:18.539Z,84.57
2023-06-25T00:12:20.587Z,84.21
2023-06-25T00:13:22.575Z,84.14
2023-06-25T00:14:24.548Z,84.59
2023-06-25T00:15:26.585Z,84.37
2023-06-25T00:16:30.526Z,84.36
2023-06-25T00:17:32.685Z,84.32
2023-06-25T00:18:35.331Z,83.90
2023-06-25T00:19:37.340Z,84.63
2023-06-25T00:20:39.812Z,84.64
2023-06-25T00:21:42.419Z,83.81
2023-06-25T00:22:57.500Z,84.36
2023-06-25T00:24:07.149Z,84.36
2023-06-25T00:25:09.415Z,84.86
2023-06-25T00:26:11.763Z,84.55
2023-06-25T00:27:13.810Z,84.42
2023-06-25T00:28:15.822Z,84.45
2023-06-25T00:29:17.790Z,84.47
2023-06-25T00:30:21.827Z,84.28
2023-06-25T00:31:25.257Z,84.58
2023-06-25T00:32:27.406Z,84.47
2023-06-25T00:33:29.444Z,84.14
2023-06-25T00:34:31.418Z,84.62
2023-06-25T00:35:51.811Z,84.71
2023-06-25T00:36:54.095Z,84.67
2023-06-25T00:38:02.726Z,84.34
2023-06-25T00:39:06.431Z,84.56
2023-06-25T00:40:11.703Z,84.29
2023-06-25T00:41:13.802Z,84.69
2023-06-25T00:42:16.159Z,84.84
2023-06-25T00:43:22.486Z,84.19
2023-06-25T00:44:29.561Z,85.09
2023-06-25T00:45:31.620Z,85.01
2023-06-25T00:46:33.600Z,84.68
2023-06-25T00:47:35.643Z,84.87
2023-06-25T00:48:38.780Z,84.90
2023-06-25T00:49:41.537Z,84.31
2023-06-25T00:50:43.857Z,84.25
2023-06-25T00:51:45.855Z,84.26
2023-06-25T00:52:47.825Z,84.77
2023-06-25T00:53:49.910Z,84.47
2023-06-25T00:54:51.950Z,84.78
2023-06-25T00:55:54.501Z,84.63
2023-06-25T00:56:56.518Z,84.55
2023-06-25T00:57:58.608Z,85.40
2023-06-25T00:59:02.100Z,84.79
2023-06-25T01:00:06.410Z,84.95
2023-06-25T01:01:12.678Z,84.36
2023-06-25T01:02:35.750Z,84.91
2023-06-25T01:03:41.389Z,85.64
2023-06-25T01:05:01.626Z,85.68
2023-06-25T01:06:13.637Z,85.04
2023-06-25T01:07:18.814Z,84.73
2023-06-25T01:08:20.968Z,85.37
2023-06-25T01:09:23.004Z,84.72
2023-06-25T01:10:25.029Z,84.78
2023-06-25T01:11:28.581Z,84.57
2023-06-25T01:12:30.589Z,85.17
2023-06-25T01:13:32.692Z,84.95
2023-06-25T01:14:35.637Z,84.65
2023-06-25T01:15:37.826Z,85.30
2023-06-25T01:16:40.010Z,85.58
2023-06-25T01:17:42.088Z,85.69
2023-06-25T01:18:51.381Z,85.11
2023-06-25T01:20:01.134Z,85.33
2023-06-25T01:21:03.153Z,85.26
2023-06-25T01:22:05.929Z,85.52
2023-06-25T01:23:08.208Z,85.01
2023-06-25T01:24:10.242Z,84.99
2023-06-25T01:25:12.300Z,85.21
2023-06-25T01:26:14.265Z,85.65
2023-06-25T01:27:16.245Z,85.90
2023-06-25T01:28:21.587Z,85.50
2023-06-25T01:29:23.718Z,85.57
2023-06-25T01:30:28.193Z,85.11
2023-06-25T01:31:32.932Z,85.99
2023-06-25T01:32:35.288Z,85.08
2023-06-25T01:33:38.155Z,85.29
2023-06-25T01:34:40.163Z,85.50
2023-06-25T01:35:42.207Z,86.22
2023-06-25T01:36:44.381Z,86.37
2023-06-25T01:37:48.245Z,85.42
2023-06-25T01:38:50.213Z,85.87
2023-06-25T01:39:55.214Z,85.95
2023-06-25T01:40:57.292Z,86.36
2023-06-25T01:41:59.280Z,86.22
2023-06-25T01:43:01.245Z,86.26
2023-06-25T01:44:04.112Z,86.64
2023-06-25T01:45:06.718Z,86.16
2023-06-25T01:46:08.794Z,86.52
2023-06-25T01:47:10.948Z,86.09
2023-06-25T01:48:13.160Z,85.70
2023-06-25T01:49:30.398Z,86.14
2023-06-25T01:50:34.731Z,86.09
2023-06-25T01:51:36.720Z,85.77
2023-06-25T01:52:39.206Z,85.27
2023-06-25T01:53:41.187Z,85.19
2023-06-25T01:54:43.198Z,84.95
2023-06-25T01:55:45.185Z,85.53
2023-06-25T01:56:47.151Z,85.59
2023-06-25T01:57:49.197Z,85.79
2023-06-25T01:58:54.289Z,84.95
2023-06-25T01:59:56.348Z,84.96
2023-06-25T02:00:58.372Z,85.47
2023-06-25T02:02:00.350Z,85.35
2023-06-25T02:03:02.541Z,84.80
2023-06-25T02:04:07.556Z,85.65
2023-06-25T02:05:09.680Z,85.58
2023-06-25T02:06:11.785Z,84.91
2023-06-25T02:07:13.870Z,84.89
2023-06-25T02:08:16.019Z,85.14
2023-06-25T02:09:18.029Z,84.95
2023-06-25T02:10:20.067Z,85.03
2023-06-25T02:11:22.056Z,84.89
2023-06-25T02:12:24.024Z,84.99
2023-06-25T02:13:26.001Z,84.60
2023-06-25T02:14:27.977Z,84.58
2023-06-25T02:15:31.019Z,84.81
2023-06-25T02:16:33.047Z,84.80
2023-06-25T02:17:35.079Z,85.04
2023-06-25T02:18:37.636Z,84.78
2023-06-25T02:19:39.654Z,84.44
2023-06-25T02:20:41.760Z,85.07
2023-06-25T02:21:43.732Z,85.61
2023-06-25T02:22:45.796Z,85.60
2023-06-25T02:23:47.868Z,85.29
2023-06-25T02:24:49.868Z,84.83
2023-06-25T02:25:51.836Z,85.38
2023-06-25T02:26:53.871Z,85.48
2023-06-25T02:27:55.892Z,85.12
2023-06-25T02:28:58.579Z,84.61
2023-06-25T02:30:00.672Z,84.71
2023-06-25T02:31:02.704Z,84.88
2023-06-25T02:32:05.020Z,85.28
2023-06-25T02:33:07.206Z,85.35
2023-06-25T02:34:09.310Z,85.13
2023-06-25T02:35:11.316Z,84.88
2023-06-25T02:36:13.336Z,85.48
2023-06-25T02:37:15.925Z,85.42
2023-06-25T02:38:19.753Z,85.80
2023-06-25T02:39:21.795Z,85.11
2023-06-25T02:40:23.828Z,85.89
2023-06-25T02:41:25.831Z,85.04
2023-06-25T02:42:27.844Z,85.90
2023-06-25T02:43:29.914Z,85.14
2023-06-25T02:44:31.920Z,85.52
2023-06-25T02:45:33.978Z,86.15
2023-06-25T02:46:36.810Z,85.31
2023-06-25T02:47:38.944Z,85.63
2023-06-25T02:48:46.936Z,85.78
2023-06-25T02:49:48.917Z,85.40
2023-06-25T02:50:50.882Z,85.80
2023-06-25T02:51:52.913Z,85.63
2023-06-25T02:52:54.899Z,85.40
2023-06-25T02:53:59.790Z,85.68
2023-06-25T02:55:01.775Z,85.46
2023-06-25T02:56:03.832Z,85.65
2023-06-25T02:57:05.989Z,85.63
2023-06-25T02:58:08.033Z,85.34
2023-06-25T02:59:10.106Z,85.75
2023-06-25T03:00:12.527Z,85.39
2023-06-25T03:01:14.642Z,85.51
2023-06-25T03:02:17.570Z,84.96
2023-06-25T03:03:19.690Z,85.61
2023-06-25T03:04:21.837Z,85.79
2023-06-25T03:05:23.921Z,85.93
2023-06-25T03:06:25.893Z,85.86
2023-06-25T03:07:27.898Z,85.41
2023-06-25T03:08:29.971Z,86.05
2023-06-25T03:09:31.938Z,85.73
2023-06-25T03:10:34.635Z,85.70
2023-06-25T03:11:36.630Z,85.02
2023-06-25T03:12:38.632Z,84.98
2023-06-25T03:13:40.616Z,85.53
2023-06-25T03:14:42.719Z,85.62
2023-06-25T03:15:46.533Z,85.84
2023-06-25T03:16:48.515Z,85.39
2023-06-25T03:17:50.823Z,85.60
2023-06-25T03:18:53.005Z,85.80
2023-06-25T03:19:54.968Z,85.68
2023-06-25T03:20:57.038Z,85.92
2023-06-25T03:21:59.088Z,85.70
2023-06-25T03:23:01.098Z,85.11
2023-06-25T03:24:03.202Z,85.60
2023-06-25T03:25:05.772Z,85.51
2023-06-25T03:26:07.796Z,85.25
2023-06-25T03:27:09.802Z,85.69
2023-06-25T03:28:11.881Z,85.90
2023-06-25T03:29:13.900Z,85.23
2023-06-25T03:30:15.919Z,85.39
2023-06-25T03:31:17.924Z,85.15
2023-06-25T03:32:20.183Z,84.98
2023-06-25T03:33:22.225Z,85.46
2023-06-25T03:34:24.230Z,85.11
2023-06-25T03:35:26.259Z,85.40
2023-06-25T03:36:28.271Z,85.70
2023-06-25T03:37:30.260Z,85.84
2023-06-25T03:38:32.342Z,85.88
2023-06-25T03:39:34.390Z,85.39
2023-06-25T03:40:36.603Z,85.39
2023-06-25T03:41:38.597Z,85.17
2023-06-25T03:42:40.633Z,85.95
2023-06-25T03:43:42.720Z,85.20
2023-06-25T03:44:52.554Z,85.77
2023-06-25T03:45:54.603Z,85.37
2023-06-25T03:46:56.649Z,85.53
2023-06-25T03:47:58.742Z,85.62
2023-06-25T03:49:00.989Z,85.77
2023-06-25T03:50:03.156Z,85.04
2023-06-25T03:51:05.155Z,85.25
2023-06-25T03:52:07.651Z,84.58
2023-06-25T03:53:10.088Z,84.69
2023-06-25T03:54:12.096Z,84.58
2023-06-25T03:55:14.166Z,84.28
2023-06-25T03:56:16.184Z,85.26
2023-06-25T03:57:18.164Z,84.70
2023-06-25T03:58:20.232Z,84.07
2023-06-25T03:59:22.229Z,84.11
2023-06-25T04:00:24.305Z,83.76
2023-06-25T04:01:26.296Z,84.31
2023-06-25T04:02:28.482Z,83.89
2023-06-25T04:03:30.559Z,84.24
2023-06-25T04:04:32.593Z,83.33
2023-06-25T04:05:34.986Z,84.17
2023-06-25T04:06:37.129Z,84.37
2023-06-25T04:07:42.191Z,84.57
2023-06-25T04:08:44.366Z,84.31
2023-06-25T04:09:46.351Z,84.30
2023-06-25T04:10:48.396Z,84.79
2023-06-25T04:11:50.356Z,84.70
2023-06-25T04:12:52.329Z,84.21
2023-06-25T04:13:54.331Z,84.03
2023-06-25T04:14:56.361Z,83.84
2023-06-25T04:15:58.363Z,84.13
2023-06-25T04:17:00.405Z,83.40
2023-06-25T04:18:02.544Z,83.91
2023-06-25T04:19:04.562Z,83.89
2023-06-25T04:20:07.843Z,83.69
2023-06-25T04:21:09.974Z,82.83
2023-06-25T04:22:11.955Z,83.12
2023-06-25T04:23:13.931Z,82.64
2023-06-25T04:24:15.948Z,82.92
2023-06-25T04:25:17.919Z,83.41
2023-06-25T04:26:19.928Z,82.85
2023-06-25T04:27:21.952Z,83.16
2023-06-25T04:28:24.008Z,84.21
2023-06-25T04:29:25.993Z,83.92
2023-06-25T04:30:31.052Z,83.08
2023-06-25T04:31:33.146Z,83.12
2023-06-25T04:32:36.030Z,83.23
2023-06-25T04:33:42.766Z,82.74
2023-06-25T04:34:44.876Z,82.83
2023-06-25T04:35:46.895Z,82.58
2023-06-25T04:36:51.705Z,82.89
2023-06-25T04:37:53.735Z,82.30
2023-06-25T04:38:55.741Z,82.92
2023-06-25T04:39:57.763Z,83.41
2023-06-25T04:40:59.789Z,83.61
2023-06-25T04:42:01.827Z,83.68
2023-06-25T04:43:03.887Z,83.38
2023-06-25T04:44:05.896Z,83.24
2023-06-25T04:45:08.439Z,83.30
2023-06-25T04:46:10.440Z,82.51
2023-06-25T04:47:12.472Z,83.43
2023-06-25T04:48:14.518Z,82.96
2023-06-25T04:49:16.751Z,82.43
2023-06-25T04:50:18.761Z,82.83
2023-06-25T04:51:20.726Z,81.93
2023-06-25T04:52:22.731Z,82.48
2023-06-25T04:53:24.734Z,82.90
2023-06-25T04:54:26.743Z,83.42
2023-06-25T04:55:29.853Z,82.60
2023-06-25T04:56:31.861Z,83.42
2023-06-25T04:57:33.892Z,83.10
2023-06-25T04:58:39.910Z,82.42
2023-06-25T04:59:41.888Z,82.83
2023-06-25T05:00:43.884Z,82.13
2023-06-25T05:01:45.961Z,82.17
2023-06-25T05:02:48.004Z,82.49
2023-06-25T05:03:50.131Z,82.26
2023-06-25T05:04:52.284Z,82.55
2023-06-25T05:05:54.315Z,82.81
2023-06-25T05:06:56.342Z,81.56
2023-06-25T05:07:58.412Z,81.53
2023-06-25T05:09:00.404Z,82.01
2023-06-25T05:10:02.418Z,81.84
2023-06-25T05:11:06.773Z,82.60
2023-06-25T05:12:11.869Z,82.47
2023-06-25T05:13:13.873Z,81.54
2023-06-25T05:14:15.891Z,82.31
2023-06-25T05:15:18.995Z,81.20
2023-06-25T05:16:21.090Z,81.70
2023-06-25T05:17:23.079Z,82.14
2023-06-25T05:18:25.047Z,83.17
2023-06-25T05:19:27.019Z,82.77
2023-06-25T05:20:32.518Z,81.16
2023-06-25T05:21:34.474Z,81.79
2023-06-25T05:22:36.435Z,82.27
2023-06-25T05:23:45.272Z,82.67
2023-06-25T05:24:47.339Z,82.94
2023-06-25T05:25:49.402Z,82.82
2023-06-25T05:26:54.358Z,82.85
2023-06-25T05:27:56.382Z,83.15
2023-06-25T05:28:59.049Z,82.63
2023-06-25T05:30:01.066Z,82.51
2023-06-25T05:31:03.057Z,82.31
2023-06-25T05:32:06.140Z,82.29
2023-06-25T05:33:09.909Z,82.29
2023-06-25T05:34:12.027Z,82.49
2023-06-25T05:35:14.041Z,82.68
2023-06-25T05:36:17.004Z,82.62
2023-06-25T05:37:19.005Z,82.49
2023-06-25T05:38:21.019Z,82.41
2023-06-25T05:39:29.871Z,82.49
2023-06-25T05:40:31.847Z,82.35
2023-06-25T05:41:34.197Z,81.16
2023-06-25T05:42:36.165Z,81.03
2023-06-25T05:43:38.135Z,80.77
2023-06-25T05:44:43.347Z,80.97
2023-06-25T05:45:45.350Z,80.32
2023-06-25T05:46:50.555Z,79.89
2023-06-25T05:47:52.721Z,79.91
2023-06-25T05:48:54.774Z,80.67
2023-06-25T05:49:56.788Z,79.84
2023-06-25T05:50:58.781Z,80.04
2023-06-25T05:52:00.787Z,80.42
2023-06-25T05:53:02.818Z,80.49
2023-06-25T05:54:04.881Z,80.32
2023-06-25T05:55:06.998Z,80.28
2023-06-25T05:56:10.110Z,80.62
2023-06-25T05:57:13.291Z,80.17
2023-06-25T05:58:15.297Z,80.36
2023-06-25T05:59:17.403Z,80.67
2023-06-25T06:00:22.507Z,80.62
2023-06-25T06:01:24.586Z,81.24
2023-06-25T06:02:26.575Z,81.57
2023-06-25T06:03:28.602Z,81.05
2023-06-25T06:04:30.751Z,80.35
2023-06-25T06:05:32.809Z,81.08
2023-06-25T06:06:34.855Z,81.47
2023-06-25T06:07:36.888Z,81.68
2023-06-25T06:08:38.873Z,81.07
2023-06-25T06:09:40.845Z,81.29
2023-06-25T06:10:45.614Z,81.56
2023-06-25T06:11:50.560Z,81.38
2023-06-25T06:12:52.559Z,80.52
2023-06-25T06:13:57.137Z,80.23
2023-06-25T06:14:59.657Z,81.37
2023-06-25T06:16:01.671Z,81.46
2023-06-25T06:17:03.812Z,81.44
2023-06-25T06:18:05.942Z,81.68
2023-06-25T06:19:08.042Z,81.25
2023-06-25T06:20:10.322Z,81.31
2023-06-25T06:21:12.321Z,81.55
2023-06-25T06:22:14.394Z,81.54
2023-06-25T06:23:16.376Z,81.70
2023-06-25T06:24:18.420Z,81.92
2023-06-25T06:25:20.436Z,81.21
2023-06-25T06:26:22.473Z,80.80
2023-06-25T06:27:24.556Z,80.59
2023-06-25T06:28:26.555Z,80.53
2023-06-25T06:29:28.559Z,81.00
2023-06-25T06:30:30.641Z,80.60
2023-06-25T06:31:33.240Z,81.29
2023-06-25T06:32:35.235Z,81.56
2023-06-25T06:33:39.242Z,80.69
2023-06-25T06:34:42.823Z,80.77
2023-06-25T06:35:44.788Z,79.68
2023-06-25T06:36:46.860Z,79.08
2023-06-25T06:37:48.899Z,79.45
2023-06-25T06:38:51.432Z,79.31
2023-06-25T06:39:53.427Z,79.03
2023-06-25T06:40:55.497Z,79.54
2023-06-25T06:41:57.514Z,78.79
2023-06-25T06:42:59.538Z,78.90
2023-06-25T06:44:20.047Z,78.92
2023-06-25T06:45:22.032Z,78.99
2023-06-25T06:46:24.043Z,78.57
2023-06-25T06:47:26.077Z,78.74
2023-06-25T06:48:28.092Z,79.36
2023-06-25T06:49:30.069Z,79.23
2023-06-25T06:50:32.063Z,79.32
2023-06-25T06:51:37.177Z,79.36
2023-06-25T06:52:39.198Z,79.51
2023-06-25T06:53:44.331Z,79.32
2023-06-25T06:54:46.342Z,79.33
2023-06-25T06:55:48.377Z,79.01
2023-06-25T06:56:50.358Z,79.40
2023-06-25T06:57:52.392Z,79.30
2023-06-25T06:58:54.461Z,78.97
2023-06-25T06:59:57.574Z,78.78
2023-06-25T07:00:59.618Z,78.67
2023-06-25T07:02:01.699Z,79.23
2023-06-25T07:03:03.960Z,78.67
2023-06-25T07:04:06.071Z,78.48
2023-06-25T07:05:08.320Z,78.86
2023-06-25T07:06:10.396Z,79.49
2023-06-25T07:07:12.441Z,79.06
2023-06-25T07:08:17.356Z,78.35
2023-06-25T07:09:25.378Z,78.71
2023-06-25T07:10:27.757Z,78.54
2023-06-25T07:11:29.744Z,79.14
2023-06-25T07:12:31.768Z,78.42
2023-06-25T07:13:34.040Z,78.74
2023-06-25T07:14:36.057Z,78.50
2023-06-25T07:15:38.817Z,79.37
2023-06-25T07:16:43.148Z,79.33
2023-06-25T07:17:45.481Z,78.31
2023-06-25T07:18:47.544Z,77.87
2023-06-25T07:19:49.518Z,78.43
2023-06-25T07:20:51.737Z,78.89
2023-06-25T07:21:53.793Z,79.32
2023-06-25T07:22:55.808Z,78.37
2023-06-25T07:23:57.831Z,78.87
2023-06-25T07:25:00.268Z,78.46
2023-06-25T07:26:02.281Z,77.97
2023-06-25T07:27:04.485Z,78.76
2023-06-25T07:28:06.478Z,78.96
2023-06-25T07:29:08.646Z,77.15
2023-06-25T07:30:11.001Z,77.21
2023-06-25T07:31:13.107Z,77.71
2023-06-25T07:32:15.132Z,77.72
2023-06-25T07:33:17.268Z,77.84
2023-06-25T07:34:19.381Z,78.54
2023-06-25T07:35:23.009Z,78.78
2023-06-25T07:36:25.062Z,79.12
2023-06-25T07:37:30.171Z,79.25
2023-06-25T07:38:32.466Z,79.67
2023-06-25T07:39:34.914Z,78.82
2023-06-25T07:40:36.955Z,78.95
2023-06-25T07:41:39.310Z,78.41
2023-06-25T07:42:41.353Z,78.58
2023-06-25T07:43:43.363Z,77.82
2023-06-25T07:44:55.745Z,77.14
2023-06-25T07:46:00.531Z,77.51
2023-06-25T07:47:02.556Z,77.08
2023-06-25T07:48:04.754Z,77.27
2023-06-25T07:49:06.808Z,77.86
2023-06-25T07:50:09.010Z,78.38
2023-06-25T07:51:10.988Z,78.45
2023-06-25T07:52:13.000Z,78.31
2023-06-25T07:53:14.986Z,78.06
2023-06-25T07:54:17.018Z,77.17
2023-06-25T07:55:19.172Z,77.08
2023-06-25T07:56:21.203Z,77.69
2023-06-25T07:57:25.892Z,77.96
2023-06-25T07:58:27.947Z,78.22
2023-06-25T07:59:42.521Z,77.09
2023-06-25T08:00:51.947Z,75.49
2023-06-25T08:01:54.014Z,75.66
2023-06-25T08:02:59.060Z,75.82
2023-06-25T08:04:02.757Z,75.29
2023-06-25T08:05:05.080Z,75.82
2023-06-25T08:06:07.210Z,75.53
2023-06-25T08:07:10.228Z,75.83
2023-06-25T08:08:12.315Z,76.73
2023-06-25T08:09:14.343Z,76.92
2023-06-25T08:10:16.391Z,77.28
2023-06-25T08:11:21.489Z,77.23
2023-06-25T08:12:23.470Z,78.23
2023-06-25T08:13:25.464Z,77.67
2023-06-25T08:14:27.482Z,78.16
2023-06-25T08:15:29.454Z,78.39
2023-06-25T08:16:31.555Z,78.26
2023-06-25T08:17:33.614Z,77.76
2023-06-25T08:18:35.621Z,78.15
2023-06-25T08:19:37.608Z,78.07
2023-06-25T08:20:40.253Z,78.32
2023-06-25T08:21:42.268Z,77.84
2023-06-25T08:22:47.123Z,78.20
2023-06-25T08:23:49.113Z,77.78
2023-06-25T08:24:51.739Z,78.34
2023-06-25T08:25:55.237Z,77.95
2023-06-25T08:26:57.251Z,77.73
2023-06-25T08:27:59.258Z,78.68
2023-06-25T08:29:01.223Z,79.18
2023-06-25T08:30:05.632Z,78.64
2023-06-25T08:31:08.018Z,79.14
2023-06-25T08:32:10.048Z,77.97
2023-06-25T08:33:12.040Z,78.59
2023-06-25T08:34:14.043Z,78.21
2023-06-25T08:35:16.151Z,79.15
2023-06-25T08:36:18.169Z,79.21
2023-06-25T08:37:20.249Z,78.08
2023-06-25T08:38:26.252Z,78.07
2023-06-25T08:39:28.724Z,78.69
2023-06-25T08:40:31.684Z,78.97
2023-06-25T08:41:33.751Z,78.02
2023-06-25T08:42:35.767Z,78.53
2023-06-25T08:43:37.782Z,78.12
2023-06-25T08:44:39.792Z,78.37
2023-06-25T08:45:42.297Z,78.32
2023-06-25T08:46:50.733Z,78.80
2023-06-25T08:47:56.757Z,78.06
2023-06-25T08:49:00.013Z,78.13
2023-06-25T08:50:02.033Z,78.57
2023-06-25T08:51:08.021Z,78.30
2023-06-25T08:52:09.996Z,77.49
2023-06-25T08:53:12.003Z,76.55
2023-06-25T08:54:14.070Z,76.04
2023-06-25T08:55:16.123Z,75.41
2023-06-25T08:56:18.200Z,75.49
2023-06-25T08:57:20.651Z,75.35
2023-06-25T08:58:22.870Z,75.96
2023-06-25T08:59:24.854Z,76.38
2023-06-25T09:00:26.912Z,76.04
2023-06-25T09:01:28.993Z,76.27
2023-06-25T09:02:31.033Z,76.65
2023-06-25T09:03:33.105Z,74.85
2023-06-25T09:04:35.241Z,74.13
2023-06-25T09:05:37.508Z,75.55
2023-06-25T09:06:50.651Z,74.81
2023-06-25T09:08:00.851Z,74.45
2023-06-25T09:09:03.858Z,75.46
2023-06-25T09:10:09.213Z,72.12
2023-06-25T09:11:11.218Z,73.26
2023-06-25T09:12:13.799Z,74.33
2023-06-25T09:13:27.378Z,74.17
2023-06-25T09:14:31.000Z,74.47
2023-06-25T09:15:33.089Z,75.17
2023-06-25T09:16:45.418Z,75.52
2023-06-25T09:17:47.438Z,71.98
2023-06-25T09:18:49.490Z,72.57
2023-06-25T09:19:52.494Z,72.93
2023-06-25T09:20:55.858Z,72.50
2023-06-25T09:21:58.150Z,73.98
2023-06-25T09:23:05.374Z,72.62
2023-06-25T09:24:17.569Z,71.64
2023-06-25T09:25:23.807Z,70.75
2023-06-25T09:26:25.781Z,70.38
2023-06-25T09:27:27.792Z,70.37
2023-06-25T09:28:29.865Z,70.26
2023-06-25T09:29:38.166Z,70.10
2023-06-25T09:30:40.514Z,71.74
2023-06-25T09:31:43.967Z,70.23
2023-06-25T09:32:55.388Z,71.23
2023-06-25T09:33:57.447Z,71.26
2023-06-25T09:34:59.463Z,72.71
2023-06-25T09:36:05.075Z,72.46
2023-06-25T09:37:13.513Z,70.70
2023-06-25T09:38:15.543Z,71.25
2023-06-25T09:39:17.557Z,68.90
2023-06-25T09:40:22.817Z,67.90
2023-06-25T09:41:24.842Z,68.26
2023-06-25T09:42:27.148Z,65.54
2023-06-25T09:43:29.170Z,66.24
2023-06-25T09:44:31.345Z,66.59
2023-06-25T09:45:33.383Z,67.26
2023-06-25T09:46:39.618Z,66.90
2023-06-25T09:47:42.814Z,66.74
2023-06-25T09:48:44.836Z,66.88
2023-06-25T09:49:46.902Z,65.30
2023-06-25T09:50:49.981Z,66.09
2023-06-25T09:52:15.653Z,63.89
2023-06-25T09:53:23.092Z,66.06
2023-06-25T09:54:25.788Z,64.85
2023-06-25T09:55:28.882Z,65.88
2023-06-25T09:56:32.512Z,67.18
2023-06-25T09:57:34.527Z,63.44
2023-06-25T09:58:36.560Z,63.04
2023-06-25T09:59:38.589Z,63.17
2023-06-25T10:00:40.715Z,64.94
2023-06-25T10:01:42.966Z,63.65
2023-06-25T10:02:46.297Z,64.87
2023-06-25T10:03:48.486Z,63.98
2023-06-25T10:04:50.892Z,63.80
2023-06-25T10:05:53.007Z,64.67
2023-06-25T10:06:55.109Z,65.25
2023-06-25T10:07:57.403Z,65.32
2023-06-25T10:08:59.385Z,66.11
2023-06-25T10:10:01.475Z,67.44
2023-06-25T10:11:05.621Z,68.41
2023-06-25T10:12:08.187Z,66.69
2023-06-25T10:13:10.606Z,65.91
2023-06-25T10:14:15.006Z,66.31
2023-06-25T10:15:38.011Z,66.72
2023-06-25T10:16:40.737Z,66.64
2023-06-25T10:17:51.922Z,66.98
2023-06-25T10:18:57.474Z,67.25
2023-06-25T10:20:01.636Z,65.42
2023-06-25T10:21:03.996Z,64.49
2023-06-25T10:22:13.509Z,66.12
2023-06-25T10:23:24.106Z,64.70
2023-06-25T10:24:42.483Z,64.24
2023-06-25T10:25:58.078Z,64.71
2023-06-25T10:27:00.083Z,66.72
2023-06-25T10:28:12.818Z,65.23
2023-06-25T10:29:14.841Z,66.41
2023-06-25T10:30:16.945Z,65.27
2023-06-25T10:31:19.488Z,66.07
2023-06-25T10:32:25.295Z,66.77
2023-06-25T10:33:33.231Z,66.81
2023-06-25T10:34:38.916Z,67.93
2023-06-25T10:35:41.991Z,67.66
2023-06-25T10:36:51.217Z,68.95
2023-06-25T10:37:53.187Z,68.56
2023-06-25T10:38:55.160Z,67.34
2023-06-25T10:40:26.768Z,64.64
2023-06-25T10:41:31.951Z,66.58
2023-06-25T10:42:33.959Z,67.38
2023-06-25T10:43:37.596Z,67.95
2023-06-25T10:44:40.366Z,67.97
2023-06-25T10:45:48.606Z,67.73
2023-06-25T10:46:50.704Z,68.00
2023-06-25T10:48:14.280Z,69.49
2023-06-25T10:49:20.249Z,70.16
2023-06-25T10:50:22.231Z,69.14
2023-06-25T10:51:24.449Z,67.68
2023-06-25T10:52:32.242Z,68.21
2023-06-25T10:53:34.240Z,65.91
2023-06-25T10:54:36.215Z,66.35
2023-06-25T10:55:39.698Z,67.89
2023-06-25T10:56:41.829Z,68.72
2023-06-25T10:57:44.149Z,65.71
2023-06-25T10:58:46.418Z,67.15
2023-06-25T10:59:49.833Z,64.78
2023-06-25T11:00:58.565Z,63.65
2023-06-25T11:02:23.826Z,67.42
2023-06-25T11:03:26.320Z,67.76
2023-06-25T11:04:28.571Z,65.82
2023-06-25T11:05:40.948Z,66.55
2023-06-25T11:06:43.003Z,61.68
2023-06-25T11:07:45.035Z,62.11
2023-06-25T11:08:48.999Z,61.24
2023-06-25T11:10:00.058Z,61.82
2023-06-25T11:11:02.073Z,55.37
2023-06-25T11:12:06.875Z,54.73
2023-06-25T11:13:12.550Z,54.70
2023-06-25T11:14:14.661Z,56.27
2023-06-25T11:15:18.285Z,58.29
2023-06-25T11:16:20.671Z,56.96
2023-06-25T11:17:23.386Z,58.51
2023-06-25T11:18:25.455Z,58.69
2023-06-25T11:19:27.622Z,59.78
2023-06-25T11:20:31.106Z,61.86
2023-06-25T11:21:36.772Z,62.51
2023-06-25T11:22:43.376Z,60.56
2023-06-25T11:23:45.832Z,62.43
2023-06-25T11:24:47.986Z,62.51
2023-06-25T11:25:50.061Z,63.55
2023-06-25T11:26:58.037Z,63.15
2023-06-25T11:28:06.580Z,66.32
2023-06-25T11:29:09.118Z,66.64
2023-06-25T11:30:11.300Z,66.37
2023-06-25T11:31:13.427Z,67.99
2023-06-25T11:32:22.304Z,66.75
2023-06-25T11:33:24.284Z,67.00
2023-06-25T11:34:26.647Z,67.16
2023-06-25T11:35:28.636Z,67.21
2023-06-25T11:36:30.664Z,67.84
2023-06-25T11:37:42.468Z,66.64
2023-06-25T11:38:44.951Z,65.50
2023-06-25T11:39:47.947Z,64.75
2023-06-25T11:40:52.070Z,65.83
2023-06-25T11:41:57.041Z,65.94
2023-06-25T11:42:59.056Z,66.60
2023-06-25T11:44:01.196Z,67.76
2023-06-25T11:45:08.812Z,66.85
2023-06-25T11:46:13.088Z,69.24
2023-06-25T11:47:15.459Z,68.60
2023-06-25T11:48:18.138Z,67.48
2023-06-25T11:49:21.000Z,67.15
2023-06-25T11:50:24.688Z,69.00
2023-06-25T11:51:26.706Z,67.30
2023-06-25T11:52:28.698Z,68.42
2023-06-25T11:53:30.670Z,68.15
2023-06-25T11:54:32.683Z,64.45
2023-06-25T11:55:34.808Z,65.23
2023-06-25T11:56:36.982Z,66.46
2023-06-25T11:57:40.273Z,65.97
2023-06-25T11:58:42.240Z,66.80
2023-06-25T11:59:44.634Z,67.42
2023-06-25T12:00:46.724Z,65.17
2023-06-25T12:01:48.819Z,64.30
2023-06-25T12:02:50.900Z,64.67
2023-06-25T12:03:53.021Z,61.59
2023-06-25T12:04:55.473Z,60.61
2023-06-25T12:05:59.754Z,63.27
2023-06-25T12:07:02.071Z,61.98
2023-06-25T12:08:04.210Z,58.67
2023-06-25T12:09:06.200Z,60.89
2023-06-25T12:10:08.627Z,61.19
2023-06-25T12:11:12.933Z,58.82
2023-06-25T12:12:16.621Z,59.09
2023-06-25T12:13:18.625Z,62.65
2023-06-25T12:14:20.647Z,62.92
2023-06-25T12:15:22.993Z,63.61
2023-06-25T12:16:25.078Z,62.27
2023-06-25T12:17:27.139Z,64.82
2023-06-25T12:18:29.171Z,65.94
2023-06-25T12:19:31.203Z,64.28
2023-06-25T12:20:33.895Z,64.95
2023-06-25T12:21:35.920Z,64.50
2023-06-25T12:22:37.897Z,66.48
2023-06-25T12:23:39.895Z,64.79
2023-06-25T12:24:41.926Z,66.33
2023-06-25T12:25:43.998Z,66.46
2023-06-25T12:26:46.317Z,62.72
2023-06-25T12:27:48.310Z,62.84
2023-06-25T12:28:50.381Z,64.92
2023-06-25T12:29:52.392Z,63.53
2023-06-25T12:30:54.405Z,62.87
2023-06-25T12:31:56.538Z,63.32
2023-06-25T12:32:58.620Z,64.61
2023-06-25T12:34:00.689Z,65.40
2023-06-25T12:35:02.963Z,64.75
2023-06-25T12:36:05.250Z,64.56
2023-06-25T12:37:07.305Z,64.55
2023-06-25T12:38:09.412Z,64.76
2023-06-25T12:39:11.402Z,65.36
2023-06-25T12:40:15.008Z,64.31
2023-06-25T12:41:18.669Z,63.01
2023-06-25T12:42:20.694Z,63.86
2023-06-25T12:43:22.788Z,63.96
2023-06-25T12:44:24.763Z,66.04
2023-06-25T12:45:26.998Z,66.01
2023-06-25T12:46:29.042Z,67.77
2023-06-25T12:47:31.046Z,68.19
2023-06-25T12:48:33.282Z,67.53
2023-06-25T12:49:37.982Z,67.32
2023-06-25T12:50:40.023Z,67.46
2023-06-25T12:51:42.027Z,66.97
2023-06-25T12:52:44.051Z,67.29
2023-06-25T12:53:46.071Z,66.94
2023-06-25T12:54:48.088Z,66.84
2023-06-25T12:55:50.074Z,66.45
2023-06-25T12:56:52.097Z,68.44
2023-06-25T12:57:54.159Z,66.70
2023-06-25T12:58:56.150Z,67.59
2023-06-25T12:59:58.312Z,67.47
2023-06-25T13:01:07.256Z,67.96
2023-06-25T13:02:10.478Z,66.68
2023-06-25T13:03:12.635Z,66.38
2023-06-25T13:04:14.706Z,66.87
2023-06-25T13:05:17.158Z,66.78
2023-06-25T13:06:19.764Z,66.05
2023-06-25T13:07:21.800Z,62.42
2023-06-25T13:08:27.838Z,64.50
2023-06-25T13:09:30.785Z,64.59
2023-06-25T13:10:32.786Z,65.82
2023-06-25T13:11:35.681Z,65.02
2023-06-25T13:12:38.875Z,65.26
2023-06-25T13:13:41.005Z,67.24
2023-06-25T13:14:44.076Z,65.94
2023-06-25T13:15:46.081Z,64.62
2023-06-25T13:16:51.269Z,65.80
2023-06-25T13:17:53.480Z,63.44
2023-06-25T13:18:55.693Z,62.29
2023-06-25T13:19:57.689Z,65.64
2023-06-25T13:21:00.692Z,62.44
2023-06-25T13:22:03.192Z,63.17
2023-06-25T13:23:05.533Z,64.15
2023-06-25T13:24:07.740Z,66.00
2023-06-25T13:25:09.709Z,65.60
2023-06-25T13:26:11.907Z,67.07
2023-06-25T13:27:13.908Z,67.85
2023-06-25T13:28:15.959Z,67.86
2023-06-25T13:29:17.976Z,67.29
2023-06-25T13:30:26.686Z,65.55
2023-06-25T13:31:28.787Z,66.79
2023-06-25T13:32:30.929Z,67.91
2023-06-25T13:33:35.748Z,67.15
2023-06-25T13:34:37.724Z,66.16